createdAt,value
2023-02-11T00:00:40.470Z,98.39
2023-02-11T00:03:07.074Z,98.49
2023-02-11T00:05:33.927Z,98.42
2023-02-11T00:08:00.390Z,98.61
2023-02-11T00:10:26.969Z,98.46
2023-02-11T00:12:53.427Z,98.54
2023-02-11T00:15:21.222Z,98.54
2023-02-11T00:17:47.739Z,98.82
2023-02-11T00:20:14.505Z,98.91
2023-02-11T00:22:40.982Z,98.75
2023-02-11T00:25:07.624Z,98.82
2023-02-11T00:27:34.170Z,98.92
2023-02-11T00:30:02.273Z,98.87
2023-02-11T00:32:30.418Z,99.07
2023-02-11T00:34:56.943Z,99.18
2023-02-11T00:37:23.471Z,99.09
2023-02-11T00:39:50.252Z,99.25
2023-02-11T00:42:17.030Z,99.01
2023-02-11T00:44:45.027Z,99.25
2023-02-11T00:47:11.690Z,99.39
2023-02-11T00:49:40.291Z,99.26
2023-02-11T00:52:06.894Z,99.52
2023-02-11T00:54:34.361Z,99.44
2023-02-11T00:57:00.827Z,99.59
2023-02-11T00:59:27.504Z,99.66
2023-02-11T01:01:54.043Z,99.71
2023-02-11T01:04:20.735Z,99.74
2023-02-11T01:06:47.628Z,99.75
2023-02-11T01:09:14.221Z,99.77
2023-02-11T01:11:40.833Z,99.62
2023-02-11T01:14:07.468Z,99.89
2023-02-11T01:16:33.930Z,99.66
2023-02-11T01:19:00.446Z,99.98
2023-02-11T01:21:26.955Z,100.00
2023-02-11T01:23:53.388Z,100.00
2023-02-11T01:26:20.035Z,100.00
2023-02-11T01:28:46.807Z,100.00
2023-02-11T01:31:13.833Z,100.00
2023-02-11T01:33:40.911Z,100.00
2023-02-11T01:36:08.776Z,100.00
2023-02-11T01:38:35.490Z,100.00
2023-02-11T01:41:14.530Z,100.00
2023-02-11T01:43:44.540Z,100.00
2023-02-11T01:46:23.574Z,100.00
2023-02-11T01:49:20.065Z,100.00
2023-02-11T01:52:14.373Z,100.00
2023-02-11T01:55:04.421Z,100.00
2023-02-11T01:57:34.850Z,100.00
2023-02-11T02:00:07.529Z,100.00
2023-02-11T02:02:52.495Z,100.00
2023-02-11T02:05:40.865Z,100.00
2023-02-11T02:08:22.754Z,100.00
2023-02-11T02:10:54.646Z,100.00
2023-02-11T02:13:21.200Z,100.00
2023-02-11T02:15:53.649Z,100.00
2023-02-11T02:18:39.002Z,100.00
2023-02-11T02:21:08.229Z,100.00
2023-02-11T02:23:40.781Z,100.00
2023-02-11T02:26:16.488Z,100.00
2023-02-11T02:29:11.656Z,100.00
2023-02-11T02:31:56.405Z,100.00
2023-02-11T02:34:44.462Z,100.00
2023-02-11T02:37:55.134Z,100.00
2023-02-11T02:40:29.502Z,100.00
2023-02-11T02:42:57.687Z,100.00
2023-02-11T02:45:24.641Z,100.00
2023-02-11T02:47:51.056Z,100.00
2023-02-11T02:50:30.036Z,100.00
2023-02-11T02:53:11.838Z,100.00
2023-02-11T02:55:51.601Z,100.00
2023-02-11T02:58:33.044Z,100.00
2023-02-11T03:01:28.663Z,100.00
2023-02-11T03:04:01.293Z,100.00
2023-02-11T03:06:46.408Z,100.00
2023-02-11T03:09:44.229Z,100.00
2023-02-11T03:12:13.229Z,100.00
2023-02-11T03:14:41.012Z,100.00
2023-02-11T03:17:10.240Z,100.00
2023-02-11T03:19:43.652Z,100.00
2023-02-11T03:22:25.626Z,100.00
2023-02-11T03:24:52.060Z,100.00
2023-02-11T03:27:27.385Z,100.00
2023-02-11T03:30:32.944Z,100.00
2023-02-11T03:33:22.637Z,100.00
2023-02-11T03:35:56.449Z,100.00
2023-02-11T03:38:37.435Z,100.00
2023-02-11T03:41:07.812Z,100.00
2023-02-11T03:43:41.910Z,100.00
2023-02-11T03:46:11.989Z,100.00
2023-02-11T03:48:42.348Z,100.00
2023-02-11T03:51:11.208Z,100.00
2023-02-11T03:53:41.104Z,100.00
2023-02-11T03:56:12.664Z,100.00
2023-02-11T03:58:39.169Z,100.00
2023-02-11T04:01:08.813Z,100.00
2023-02-11T04:03:35.813Z,100.00
2023-02-11T04:06:02.482Z,100.00
2023-02-11T04:08:29.106Z,100.00
2023-02-11T04:10:55.590Z,100.00
2023-02-11T04:13:22.510Z,100.00
2023-02-11T04:15:49.271Z,100.00
2023-02-11T04:18:15.833Z,100.00
2023-02-11T04:20:42.514Z,100.00
2023-02-11T04:23:10.378Z,100.00
2023-02-11T04:25:36.914Z,100.00
2023-02-11T04:28:03.610Z,100.00
2023-02-11T04:30:30.188Z,100.00
2023-02-11T04:32:58.544Z,100.00
2023-02-11T04:35:25.095Z,100.00
2023-02-11T04:37:51.581Z,100.00
2023-02-11T04:40:18.175Z,100.00
2023-02-11T04:42:44.610Z,100.00
2023-02-11T04:45:11.303Z,100.00
2023-02-11T04:47:37.964Z,100.00
2023-02-11T04:50:04.824Z,100.00
2023-02-11T04:52:31.262Z,100.00
2023-02-11T04:54:57.796Z,100.00
2023-02-11T04:57:24.315Z,100.00
2023-02-11T04:59:50.798Z,100.00
2023-02-11T05:02:17.357Z,100.00
2023-02-11T05:04:43.782Z,100.00
2023-02-11T05:07:11.544Z,100.00
2023-02-11T05:09:38.061Z,100.00
2023-02-11T05:12:04.613Z,100.00
2023-02-11T05:14:31.123Z,100.00
2023-02-11T05:16:57.772Z,100.00
2023-02-11T05:19:24.277Z,100.00
2023-02-11T05:22:02.246Z,100.00
2023-02-11T05:24:33.093Z,100.00
2023-02-11T05:26:59.963Z,100.00
2023-02-11T05:29:26.492Z,100.00
2023-02-11T05:31:53.050Z,100.00
2023-02-11T05:34:19.596Z,100.00
2023-02-11T05:36:46.078Z,100.00
2023-02-11T05:39:12.590Z,100.00
2023-02-11T05:41:39.076Z,100.00
2023-02-11T05:44:05.578Z,100.00
2023-02-11T05:46:32.088Z,100.00
2023-02-11T05:48:58.720Z,100.00
2023-02-11T05:51:25.339Z,100.00
2023-02-11T05:53:53.480Z,100.00
2023-02-11T05:56:20.061Z,100.00
2023-02-11T05:58:46.696Z,100.00
2023-02-11T06:01:13.166Z,100.00
2023-02-11T06:03:39.701Z,100.00
2023-02-11T06:06:11.538Z,100.00
2023-02-11T06:08:40.477Z,100.00
2023-02-11T06:11:07.237Z,100.00
2023-02-11T06:13:34.179Z,100.00
2023-02-11T06:16:02.461Z,100.00
2023-02-11T06:18:29.490Z,100.00
2023-02-11T06:20:56.593Z,100.00
2023-02-11T06:23:23.471Z,100.00
2023-02-11T06:25:50.911Z,100.00
2023-02-11T06:28:17.719Z,100.00
2023-02-11T06:30:44.521Z,100.00
2023-02-11T06:33:11.026Z,100.00
2023-02-11T06:35:40.758Z,100.00
2023-02-11T06:38:07.234Z,100.00
2023-02-11T06:40:33.861Z,100.00
2023-02-11T06:43:00.439Z,100.00
2023-02-11T06:45:26.950Z,100.00
2023-02-11T06:47:53.537Z,100.00
2023-02-11T06:50:20.150Z,100.00
2023-02-11T06:52:46.637Z,100.00
2023-02-11T06:55:13.674Z,100.00
2023-02-11T06:57:40.234Z,100.00
2023-02-11T07:00:07.335Z,100.00
2023-02-11T07:02:33.969Z,100.00
2023-02-11T07:05:00.467Z,100.00
2023-02-11T07:07:27.807Z,100.00
2023-02-11T07:09:54.292Z,100.00
2023-02-11T07:12:20.820Z,100.00
2023-02-11T07:14:47.309Z,100.00
2023-02-11T07:17:13.916Z,100.00
2023-02-11T07:19:40.520Z,100.00
2023-02-11T07:22:07.151Z,100.00
2023-02-11T07:24:33.589Z,100.00
2023-02-11T07:27:00.058Z,100.00
2023-02-11T07:29:26.630Z,100.00
2023-02-11T07:31:53.094Z,100.00
2023-02-11T07:34:19.685Z,100.00
2023-02-11T07:36:46.326Z,100.00
2023-02-11T07:39:12.964Z,100.00
2023-02-11T07:41:39.502Z,100.00
2023-02-11T07:44:06.322Z,100.00
2023-02-11T07:46:34.542Z,100.00
2023-02-11T07:49:01.290Z,100.00
2023-02-11T07:51:30.107Z,100.00
2023-02-11T07:53:58.774Z,100.00
2023-02-11T07:56:25.476Z,100.00
2023-02-11T07:58:52.070Z,100.00
2023-02-11T08:01:25.567Z,100.00
2023-02-11T08:03:52.173Z,100.00
2023-02-11T08:06:20.950Z,100.00
2023-02-11T08:08:48.483Z,100.00
2023-02-11T08:11:17.237Z,100.00
2023-02-11T08:13:44.338Z,100.00
2023-02-11T08:16:22.834Z,100.00
2023-02-11T08:18:50.661Z,100.00
2023-02-11T08:21:17.336Z,100.00
2023-02-11T08:23:44.730Z,100.00
2023-02-11T08:26:18.138Z,100.00
2023-02-11T08:28:46.187Z,100.00
2023-02-11T08:31:18.983Z,100.00
2023-02-11T08:33:46.212Z,100.00
2023-02-11T08:36:17.931Z,100.00
2023-02-11T08:38:45.261Z,100.00
2023-02-11T08:41:14.823Z,100.00
2023-02-11T08:43:42.427Z,100.00
2023-02-11T08:46:12.049Z,100.00
2023-02-11T08:48:38.620Z,100.00
2023-02-11T08:51:32.974Z,100.00
2023-02-11T08:54:00.559Z,100.00
2023-02-11T08:56:27.780Z,100.00
2023-02-11T08:58:54.840Z,100.00
2023-02-11T09:01:24.730Z,100.00
2023-02-11T09:03:51.328Z,100.00
2023-02-11T09:06:18.807Z,100.00
2023-02-11T09:08:49.383Z,100.00
2023-02-11T09:11:18.000Z,100.00
2023-02-11T09:13:45.151Z,100.00
2023-02-11T09:16:27.101Z,100.00
2023-02-11T09:18:53.636Z,100.00
2023-02-11T09:21:20.262Z,100.00
2023-02-11T09:23:47.761Z,100.00
2023-02-11T09:26:19.864Z,100.00
2023-02-11T09:28:47.105Z,100.00
2023-02-11T09:31:16.556Z,100.00
2023-02-11T09:33:48.840Z,100.00
2023-02-11T09:36:21.237Z,100.00
2023-02-11T09:38:48.645Z,100.00
2023-02-11T09:41:24.257Z,100.00
2023-02-11T09:43:54.663Z,100.00
2023-02-11T09:46:23.424Z,100.00
2023-02-11T09:48:53.538Z,100.00
2023-02-11T09:51:29.908Z,100.00
2023-02-11T09:54:02.150Z,100.00
2023-02-11T09:56:31.398Z,100.00
2023-02-11T09:58:57.893Z,100.00
2023-02-11T10:01:39.077Z,100.00
2023-02-11T10:04:20.816Z,100.00
2023-02-11T10:07:00.334Z,100.00
2023-02-11T10:09:42.931Z,100.00
2023-02-11T10:12:15.371Z,100.00
2023-02-11T10:15:03.307Z,100.00
2023-02-11T10:17:38.794Z,99.88
2023-02-11T10:20:17.056Z,99.41
2023-02-11T10:22:49.386Z,99.40
2023-02-11T10:25:38.705Z,99.01
2023-02-11T10:28:19.742Z,98.82
2023-02-11T10:30:57.458Z,97.82
2023-02-11T10:33:32.551Z,97.50
2023-02-11T10:35:59.508Z,96.40
2023-02-11T10:38:27.763Z,96.23
2023-02-11T10:40:54.362Z,95.26
2023-02-11T10:43:26.866Z,95.15
2023-02-11T10:45:55.868Z,94.94
2023-02-11T10:48:39.849Z,94.54
2023-02-11T10:51:28.860Z,94.46
2023-02-11T10:54:04.801Z,93.94
2023-02-11T10:56:34.292Z,93.82
2023-02-11T10:59:22.102Z,94.22
2023-02-11T11:01:56.420Z,93.98
2023-02-11T11:04:42.956Z,93.75
2023-02-11T11:07:12.446Z,93.69
2023-02-11T11:10:29.550Z,93.69
2023-02-11T11:12:56.050Z,92.98
2023-02-11T11:15:29.152Z,93.10
2023-02-11T11:18:23.232Z,92.47
2023-02-11T11:21:12.588Z,92.63
2023-02-11T11:23:39.714Z,91.97
2023-02-11T11:26:12.610Z,92.04
2023-02-11T11:28:53.256Z,91.77
2023-02-11T11:31:33.394Z,91.85
2023-02-11T11:34:03.704Z,91.63
2023-02-11T11:36:40.026Z,91.53
2023-02-11T11:39:21.509Z,90.68
2023-02-11T11:41:54.524Z,90.46
2023-02-11T11:44:27.828Z,90.33
2023-02-11T11:47:12.618Z,89.77
2023-02-11T11:49:47.435Z,88.87
2023-02-11T11:52:29.250Z,89.63
2023-02-11T11:55:07.724Z,88.79
2023-02-11T11:57:37.248Z,88.25
2023-02-11T12:00:05.019Z,88.39
2023-02-11T12:03:09.512Z,88.35
2023-02-11T12:06:01.084Z,87.86
2023-02-11T12:09:01.583Z,87.28
2023-02-11T12:11:39.705Z,86.91
2023-02-11T12:14:30.557Z,86.73
2023-02-11T12:17:22.389Z,86.85
2023-02-11T12:20:01.226Z,86.45
2023-02-11T12:22:48.308Z,86.29
2023-02-11T12:25:26.736Z,85.72
2023-02-11T12:28:07.192Z,84.61
2023-02-11T12:31:27.595Z,84.68
2023-02-11T12:34:12.804Z,84.27
2023-02-11T12:37:19.828Z,84.86
2023-02-11T12:39:57.910Z,84.72
2023-02-11T12:42:57.677Z,84.65
2023-02-11T12:45:38.564Z,85.10
2023-02-11T12:48:10.848Z,84.44
2023-02-11T12:51:26.469Z,84.42
2023-02-11T12:54:11.478Z,84.22
2023-02-11T12:56:46.368Z,83.87
2023-02-11T12:59:31.479Z,83.40
2023-02-11T13:02:01.060Z,83.73
2023-02-11T13:04:37.324Z,83.46
2023-02-11T13:07:11.660Z,83.17
2023-02-11T13:09:51.637Z,83.55
2023-02-11T13:12:37.526Z,82.41
2023-02-11T13:15:07.728Z,82.85
2023-02-11T13:17:44.880Z,82.68
2023-02-11T13:20:31.855Z,82.96
2023-02-11T13:23:11.418Z,82.86
2023-02-11T13:25:48.860Z,82.01
2023-02-11T13:28:17.864Z,81.70
2023-02-11T13:30:51.665Z,80.97
2023-02-11T13:33:30.167Z,80.95
2023-02-11T13:35:56.617Z,81.16
2023-02-11T13:38:25.645Z,80.71
2023-02-11T13:41:18.058Z,81.50
2023-02-11T13:43:45.136Z,81.36
2023-02-11T13:46:13.713Z,80.60
2023-02-11T13:48:47.955Z,81.33
2023-02-11T13:51:17.510Z,81.26
2023-02-11T13:53:55.787Z,81.43
2023-02-11T13:56:32.798Z,81.38
2023-02-11T13:59:02.416Z,81.46
2023-02-11T14:02:07.218Z,81.28
2023-02-11T14:04:52.909Z,81.33
2023-02-11T14:07:50.521Z,81.40
2023-02-11T14:10:38.763Z,81.77
2023-02-11T14:13:19.744Z,81.48
2023-02-11T14:15:46.819Z,80.77
2023-02-11T14:18:35.118Z,81.71
2023-02-11T14:21:27.812Z,81.58
2023-02-11T14:24:14.369Z,81.72
2023-02-11T14:26:49.966Z,81.42
2023-02-11T14:29:36.986Z,81.26
2023-02-11T14:32:31.330Z,81.86
2023-02-11T14:35:43.164Z,81.68
2023-02-11T14:38:47.100Z,81.89
2023-02-11T14:41:26.976Z,81.67
2023-02-11T14:44:15.197Z,81.54
2023-02-11T14:46:50.392Z,81.77
2023-02-11T14:49:25.170Z,81.43
2023-02-11T14:51:54.396Z,81.26
2023-02-11T14:54:26.771Z,81.78
2023-02-11T14:57:18.000Z,81.72
2023-02-11T15:00:02.186Z,81.57
2023-02-11T15:02:33.919Z,81.49
2023-02-11T15:05:18.883Z,81.18
2023-02-11T15:07:51.453Z,81.17
2023-02-11T15:10:27.169Z,81.25
2023-02-11T15:12:54.453Z,81.62
2023-02-11T15:15:21.487Z,81.82
2023-02-11T15:17:48.360Z,81.51
2023-02-11T15:20:41.175Z,82.26
2023-02-11T15:23:12.553Z,82.21
2023-02-11T15:25:51.252Z,82.05
2023-02-11T15:28:28.913Z,82.03
2023-02-11T15:30:58.631Z,82.22
2023-02-11T15:33:25.967Z,82.30
2023-02-11T15:35:52.544Z,82.51
2023-02-11T15:38:19.367Z,82.44
2023-02-11T15:40:54.726Z,82.66
2023-02-11T15:43:21.377Z,82.78
2023-02-11T15:45:56.403Z,83.22
2023-02-11T15:48:30.715Z,83.28
2023-02-11T15:51:00.450Z,83.76
2023-02-11T15:53:40.468Z,84.09
2023-02-11T15:56:17.792Z,84.10
2023-02-11T15:58:47.486Z,84.08
2023-02-11T16:01:14.664Z,84.46
2023-02-11T16:03:43.338Z,84.61
2023-02-11T16:06:23.610Z,84.68
2023-02-11T16:09:08.536Z,84.75
2023-02-11T16:11:56.714Z,84.66
2023-02-11T16:14:23.517Z,85.20
2023-02-11T16:16:53.188Z,85.15
2023-02-11T16:19:23.592Z,85.21
2023-02-11T16:21:53.927Z,85.58
2023-02-11T16:24:41.556Z,85.96
2023-02-11T16:27:21.499Z,85.82
2023-02-11T16:29:52.246Z,85.92
2023-02-11T16:32:24.370Z,85.69
2023-02-11T16:34:52.219Z,85.88
2023-02-11T16:37:18.973Z,85.91
2023-02-11T16:39:46.289Z,85.95
2023-02-11T16:42:13.716Z,85.94
2023-02-11T16:44:40.512Z,85.96
2023-02-11T16:47:16.926Z,86.06
2023-02-11T16:49:43.662Z,86.12
2023-02-11T16:52:14.582Z,86.30
2023-02-11T16:54:41.377Z,86.40
2023-02-11T16:57:16.613Z,86.56
2023-02-11T16:59:43.540Z,86.39
2023-02-11T17:02:18.296Z,86.68
2023-02-11T17:04:45.471Z,86.90
2023-02-11T17:07:12.622Z,87.13
2023-02-11T17:09:39.194Z,87.24
2023-02-11T17:12:06.107Z,87.61
2023-02-11T17:14:32.535Z,87.66
2023-02-11T17:16:58.991Z,87.75
2023-02-11T17:19:25.539Z,87.66
2023-02-11T17:21:52.700Z,88.20
2023-02-11T17:24:21.288Z,88.28
2023-02-11T17:26:48.806Z,88.65
2023-02-11T17:29:20.819Z,88.68
2023-02-11T17:31:47.480Z,88.70
2023-02-11T17:34:14.072Z,88.77
2023-02-11T17:36:41.338Z,88.91
2023-02-11T17:39:08.833Z,89.22
2023-02-11T17:41:37.431Z,89.20
2023-02-11T17:44:04.650Z,89.35
2023-02-11T17:46:33.106Z,89.62
2023-02-11T17:48:59.701Z,89.77
2023-02-11T17:51:33.759Z,89.99
2023-02-11T17:54:02.361Z,90.00
2023-02-11T17:56:31.353Z,90.13
2023-02-11T17:58:57.889Z,90.18
2023-02-11T18:01:27.368Z,90.51
2023-02-11T18:03:53.876Z,90.43
2023-02-11T18:06:21.535Z,90.83
2023-02-11T18:08:48.586Z,90.59
2023-02-11T18:11:16.379Z,90.73
2023-02-11T18:13:45.030Z,90.79
2023-02-11T18:16:15.854Z,90.96
2023-02-11T18:18:43.433Z,90.95
2023-02-11T18:21:15.832Z,90.98
2023-02-11T18:23:43.328Z,91.11
2023-02-11T18:26:12.216Z,91.25
2023-02-11T18:28:39.849Z,91.10
2023-02-11T18:31:07.787Z,91.30
2023-02-11T18:33:35.497Z,91.23
2023-02-11T18:36:06.603Z,91.21
2023-02-11T18:38:33.453Z,91.27
2023-02-11T18:41:00.128Z,91.44
2023-02-11T18:43:31.611Z,91.67
2023-02-11T18:45:58.295Z,91.47
2023-02-11T18:48:27.030Z,91.57
2023-02-11T18:50:54.949Z,91.50
2023-02-11T18:53:22.092Z,91.60
2023-02-11T18:55:49.337Z,91.67
2023-02-11T18:58:15.983Z,91.53
2023-02-11T19:00:46.743Z,91.69
2023-02-11T19:03:13.263Z,91.59
2023-02-11T19:05:48.225Z,91.58
2023-02-11T19:08:16.103Z,91.70
2023-02-11T19:10:45.272Z,91.77
2023-02-11T19:13:12.533Z,91.82
2023-02-11T19:15:46.300Z,91.91
2023-02-11T19:18:14.194Z,92.04
2023-02-11T19:20:42.348Z,92.01
2023-02-11T19:23:09.673Z,92.05
2023-02-11T19:25:36.873Z,92.13
2023-02-11T19:28:03.845Z,92.04
2023-02-11T19:30:30.637Z,92.02
2023-02-11T19:32:57.710Z,92.20
2023-02-11T19:35:25.072Z,92.27
2023-02-11T19:37:51.506Z,92.25
2023-02-11T19:40:19.143Z,92.17
2023-02-11T19:42:45.585Z,92.33
2023-02-11T19:45:12.076Z,92.41
2023-02-11T19:47:38.601Z,92.57
2023-02-11T19:50:06.207Z,92.51
2023-02-11T19:52:32.912Z,92.52
2023-02-11T19:55:00.334Z,92.49
2023-02-11T19:57:26.922Z,92.40
2023-02-11T19:59:54.828Z,92.58
2023-02-11T20:02:21.517Z,92.61
2023-02-11T20:04:48.062Z,92.75
2023-02-11T20:07:14.634Z,92.93
2023-02-11T20:09:42.516Z,92.71
2023-02-11T20:12:09.240Z,92.72
2023-02-11T20:14:35.763Z,93.06
2023-02-11T20:17:02.474Z,92.59
2023-02-11T20:19:30.509Z,92.84
2023-02-11T20:21:57.118Z,92.95
2023-02-11T20:24:24.775Z,93.36
2023-02-11T20:26:55.234Z,93.15
2023-02-11T20:29:22.220Z,93.18
2023-02-11T20:31:50.250Z,93.18
2023-02-11T20:34:17.660Z,93.16
2023-02-11T20:36:51.327Z,93.30
2023-02-11T20:39:18.598Z,93.21
2023-02-11T20:41:45.992Z,93.18
2023-02-11T20:44:13.110Z,93.07
2023-02-11T20:46:42.924Z,93.21
2023-02-11T20:49:12.352Z,93.23
2023-02-11T20:51:39.621Z,93.33
2023-02-11T20:54:06.729Z,93.28
2023-02-11T20:56:36.912Z,93.21
2023-02-11T20:59:04.338Z,93.36
2023-02-11T21:01:33.981Z,93.47
2023-02-11T21:04:02.993Z,93.50
2023-02-11T21:06:35.954Z,93.48
2023-02-11T21:09:03.578Z,93.55
2023-02-11T21:11:31.020Z,93.69
2023-02-11T21:13:58.546Z,93.61
2023-02-11T21:16:25.558Z,93.64
2023-02-11T21:18:52.349Z,93.77
2023-02-11T21:21:19.387Z,93.89
2023-02-11T21:23:46.139Z,94.00
2023-02-11T21:26:13.549Z,93.93
2023-02-11T21:28:41.174Z,93.99
2023-02-11T21:31:08.223Z,94.08
2023-02-11T21:33:35.022Z,94.31
2023-02-11T21:36:04.310Z,94.18
2023-02-11T21:38:31.300Z,94.55
2023-02-11T21:41:05.608Z,94.42
2023-02-11T21:43:32.607Z,94.37
2023-02-11T21:45:59.474Z,94.55
2023-02-11T21:48:26.732Z,94.61
2023-02-11T21:50:54.031Z,94.69
2023-02-11T21:53:20.549Z,94.64
2023-02-11T21:55:47.162Z,94.65
2023-02-11T21:58:14.184Z,94.68
2023-02-11T22:00:40.792Z,94.71
2023-02-11T22:03:07.401Z,94.90
2023-02-11T22:05:33.890Z,95.31
2023-02-11T22:08:00.376Z,94.97
2023-02-11T22:10:26.904Z,94.64
2023-02-11T22:12:53.483Z,94.71
2023-02-11T22:15:20.117Z,94.85
2023-02-11T22:17:46.590Z,94.80
2023-02-11T22:20:13.176Z,94.62
2023-02-11T22:22:39.739Z,94.77
2023-02-11T22:25:06.735Z,94.79
2023-02-11T22:27:33.195Z,94.94
2023-02-11T22:29:59.699Z,94.84
2023-02-11T22:32:26.454Z,95.20
2023-02-11T22:34:53.545Z,94.95
2023-02-11T22:37:20.199Z,95.29
2023-02-11T22:39:46.834Z,95.31
2023-02-11T22:42:13.512Z,95.33
2023-02-11T22:44:40.134Z,95.39
2023-02-11T22:47:06.694Z,95.34
2023-02-11T22:49:33.221Z,95.47
2023-02-11T22:52:00.109Z,95.48
2023-02-11T22:54:26.860Z,95.48
2023-02-11T22:56:53.356Z,95.61
2023-02-11T22:59:20.591Z,95.56
2023-02-11T23:01:47.502Z,95.67
2023-02-11T23:04:16.980Z,95.50
2023-02-11T23:06:43.696Z,95.70
2023-02-11T23:09:14.227Z,95.66
2023-02-11T23:11:41.436Z,95.75
2023-02-11T23:14:10.177Z,95.70
2023-02-11T23:16:37.106Z,95.66
2023-02-11T23:19:07.282Z,95.70
2023-02-11T23:21:36.365Z,95.67
2023-02-11T23:24:10.404Z,95.72
2023-02-11T23:26:38.558Z,95.71
2023-02-11T23:29:06.174Z,95.85
2023-02-11T23:31:40.319Z,95.72
2023-02-11T23:34:08.288Z,95.88
2023-02-11T23:36:34.904Z,95.88
2023-02-11T23:39:01.766Z,95.87
2023-02-11T23:41:28.885Z,95.65
2023-02-11T23:43:57.815Z,95.98
2023-02-11T23:46:25.996Z,95.83
2023-02-11T23:48:53.111Z,95.77
2023-02-11T23:51:20.063Z,95.58
2023-02-11T23:53:49.053Z,95.77
2023-02-11T23:56:24.510Z,95.63
2023-02-11T23:58:53.478Z,95.67
